createdAt,value
2022-10-11T00:01:41.422Z,80.04
2022-10-11T00:04:08.104Z,80.74
2022-10-11T00:06:34.734Z,80.62
2022-10-11T00:09:01.302Z,80.14
2022-10-11T00:11:27.815Z,80.76
2022-10-11T00:13:54.442Z,80.62
2022-10-11T00:16:21.328Z,80.28
2022-10-11T00:18:47.823Z,79.63
2022-10-11T00:21:16.108Z,79.83
2022-10-11T00:23:43.352Z,79.75
2022-10-11T00:26:10.937Z,79.53
2022-10-11T00:28:38.063Z,79.52
2022-10-11T00:31:10.321Z,79.66
2022-10-11T00:33:37.334Z,79.69
2022-10-11T00:36:04.780Z,79.42
2022-10-11T00:38:32.080Z,79.92
2022-10-11T00:40:59.946Z,79.63
2022-10-11T00:43:30.282Z,79.61
2022-10-11T00:45:56.767Z,79.71
2022-10-11T00:48:47.838Z,79.80
2022-10-11T00:51:20.799Z,79.53
2022-10-11T00:53:51.068Z,79.81
2022-10-11T00:56:25.028Z,79.92
2022-10-11T00:58:52.826Z,79.85
2022-10-11T01:01:19.730Z,80.32
2022-10-11T01:03:46.605Z,79.74
2022-10-11T01:06:13.106Z,80.05
2022-10-11T01:08:39.977Z,79.03
2022-10-11T01:11:06.810Z,79.67
2022-10-11T01:13:48.334Z,78.97
2022-10-11T01:16:50.212Z,79.41
2022-10-11T01:19:44.530Z,79.29
2022-10-11T01:22:35.413Z,79.58
2022-10-11T01:25:22.893Z,79.07
2022-10-11T01:28:02.147Z,79.54
2022-10-11T01:30:38.467Z,79.38
2022-10-11T01:33:16.837Z,79.63
2022-10-11T01:36:19.948Z,79.55
2022-10-11T01:38:58.661Z,79.17
2022-10-11T01:41:29.757Z,79.11
2022-10-11T01:44:00.152Z,79.09
2022-10-11T01:46:28.471Z,79.56
2022-10-11T01:48:58.002Z,78.98
2022-10-11T01:51:29.168Z,79.22
2022-10-11T01:54:04.873Z,78.68
2022-10-11T01:56:53.717Z,79.35
2022-10-11T01:59:41.198Z,78.65
2022-10-11T02:02:45.785Z,78.93
2022-10-11T02:05:35.319Z,78.76
2022-10-11T02:08:04.605Z,78.93
2022-10-11T02:10:46.333Z,78.58
2022-10-11T02:13:15.598Z,78.36
2022-10-11T02:15:44.655Z,78.63
2022-10-11T02:18:16.829Z,78.77
2022-10-11T02:20:45.451Z,78.60
2022-10-11T02:23:22.785Z,78.08
2022-10-11T02:25:51.106Z,77.98
2022-10-11T02:28:23.620Z,78.00
2022-10-11T02:30:52.358Z,78.36
2022-10-11T02:33:26.445Z,78.57
2022-10-11T02:36:00.229Z,78.31
2022-10-11T02:38:43.941Z,78.47
2022-10-11T02:41:23.381Z,78.70
2022-10-11T02:43:57.640Z,79.18
2022-10-11T02:46:26.455Z,79.17
2022-10-11T02:48:53.995Z,79.14
2022-10-11T02:51:20.681Z,78.88
2022-10-11T02:53:47.253Z,79.47
2022-10-11T02:56:13.735Z,79.59
2022-10-11T02:58:40.251Z,79.63
2022-10-11T03:01:06.748Z,79.94
2022-10-11T03:03:33.228Z,79.72
2022-10-11T03:06:01.650Z,80.11
2022-10-11T03:08:28.876Z,80.88
2022-10-11T03:10:55.686Z,80.21
2022-10-11T03:13:22.735Z,80.05
2022-10-11T03:16:02.349Z,79.76
2022-10-11T03:18:33.734Z,80.04
2022-10-11T03:21:00.278Z,80.13
2022-10-11T03:23:26.790Z,80.20
2022-10-11T03:25:53.366Z,80.78
2022-10-11T03:28:20.236Z,80.39
2022-10-11T03:30:51.406Z,80.30
2022-10-11T03:33:18.905Z,80.27
2022-10-11T03:35:46.932Z,81.12
2022-10-11T03:38:14.993Z,81.11
2022-10-11T03:40:43.035Z,81.08
2022-10-11T03:43:10.067Z,80.38
2022-10-11T03:45:36.761Z,80.86
2022-10-11T03:48:03.950Z,80.96
2022-10-11T03:50:31.294Z,81.14
2022-10-11T03:52:57.997Z,80.82
2022-10-11T03:55:24.735Z,81.29
2022-10-11T03:57:51.287Z,81.45
2022-10-11T04:00:17.920Z,81.58
2022-10-11T04:02:44.488Z,81.59
2022-10-11T04:05:12.594Z,81.28
2022-10-11T04:07:39.994Z,81.65
2022-10-11T04:10:07.453Z,81.29
2022-10-11T04:12:34.394Z,81.14
2022-10-11T04:15:00.996Z,81.67
2022-10-11T04:17:27.508Z,82.23
2022-10-11T04:19:54.019Z,81.75
2022-10-11T04:22:20.520Z,81.97
2022-10-11T04:24:47.283Z,82.58
2022-10-11T04:27:13.836Z,82.65
2022-10-11T04:29:40.360Z,82.69
2022-10-11T04:32:06.915Z,82.61
2022-10-11T04:34:33.466Z,82.61
2022-10-11T04:36:59.970Z,82.40
2022-10-11T04:39:26.523Z,82.71
2022-10-11T04:41:53.036Z,82.81
2022-10-11T04:44:19.559Z,83.68
2022-10-11T04:46:46.134Z,83.41
2022-10-11T04:49:12.723Z,82.90
2022-10-11T04:51:39.240Z,83.24
2022-10-11T04:54:05.826Z,83.75
2022-10-11T04:56:32.343Z,83.68
2022-10-11T04:58:58.838Z,83.58
2022-10-11T05:01:25.493Z,83.31
2022-10-11T05:03:52.014Z,83.06
2022-10-11T05:06:19.042Z,83.17
2022-10-11T05:08:45.595Z,82.67
2022-10-11T05:11:15.924Z,83.24
2022-10-11T05:13:43.955Z,82.59
2022-10-11T05:16:11.779Z,82.46
2022-10-11T05:18:39.354Z,83.07
2022-10-11T05:21:09.194Z,82.67
2022-10-11T05:23:36.717Z,83.39
2022-10-11T05:26:04.441Z,83.21
2022-10-11T05:28:31.669Z,83.83
2022-10-11T05:30:58.779Z,83.07
2022-10-11T05:33:25.868Z,83.72
2022-10-11T05:35:52.927Z,83.74
2022-10-11T05:38:19.463Z,83.33
2022-10-11T05:40:46.206Z,83.70
2022-10-11T05:43:12.772Z,83.54
2022-10-11T05:45:40.945Z,83.02
2022-10-11T05:48:08.127Z,82.48
2022-10-11T05:50:35.058Z,82.27
2022-10-11T05:53:02.230Z,82.17
2022-10-11T05:55:28.777Z,81.27
2022-10-11T05:57:56.664Z,80.72
2022-10-11T06:00:24.626Z,80.43
2022-10-11T06:02:51.135Z,80.10
2022-10-11T06:05:17.711Z,80.09
2022-10-11T06:07:44.774Z,79.63
2022-10-11T06:10:11.348Z,79.92
2022-10-11T06:12:38.753Z,79.72
2022-10-11T06:15:06.376Z,79.81
2022-10-11T06:17:32.897Z,78.74
2022-10-11T06:19:59.408Z,78.26
2022-10-11T06:22:26.706Z,77.49
2022-10-11T06:24:53.193Z,77.57
2022-10-11T06:27:19.684Z,76.41
2022-10-11T06:29:46.166Z,75.92
2022-10-11T06:32:13.394Z,74.85
2022-10-11T06:34:39.936Z,74.22
2022-10-11T06:37:06.706Z,74.32
2022-10-11T06:39:33.652Z,73.93
2022-10-11T06:42:00.147Z,73.66
2022-10-11T06:44:26.934Z,72.59
2022-10-11T06:46:53.462Z,72.40
2022-10-11T06:49:23.316Z,71.80
2022-10-11T06:51:50.760Z,70.91
2022-10-11T06:54:17.414Z,71.08
2022-10-11T06:56:45.638Z,71.08
2022-10-11T06:59:13.405Z,70.53
2022-10-11T07:01:40.042Z,69.88
2022-10-11T07:04:07.088Z,70.01
2022-10-11T07:06:37.146Z,68.91
2022-10-11T07:09:04.422Z,67.98
2022-10-11T07:11:31.044Z,67.45
2022-10-11T07:14:00.352Z,67.53
2022-10-11T07:16:28.046Z,66.83
2022-10-11T07:19:00.885Z,66.01
2022-10-11T07:21:29.370Z,65.34
2022-10-11T07:23:55.904Z,65.16
2022-10-11T07:26:22.428Z,65.75
2022-10-11T07:28:49.085Z,65.39
2022-10-11T07:31:19.172Z,66.04
2022-10-11T07:33:46.100Z,65.28
2022-10-11T07:36:13.405Z,65.04
2022-10-11T07:38:41.820Z,64.84
2022-10-11T07:41:08.908Z,63.59
2022-10-11T07:43:36.806Z,63.71
2022-10-11T07:46:04.998Z,62.60
2022-10-11T07:48:33.575Z,61.98
2022-10-11T07:51:21.214Z,61.44
2022-10-11T07:53:49.943Z,61.43
2022-10-11T07:56:19.501Z,60.57
2022-10-11T07:58:51.522Z,60.25
2022-10-11T08:01:18.654Z,60.13
2022-10-11T08:03:45.344Z,59.36
2022-10-11T08:06:14.578Z,58.95
2022-10-11T08:08:41.098Z,58.55
2022-10-11T08:11:07.972Z,58.57
2022-10-11T08:13:35.338Z,58.70
2022-10-11T08:16:09.136Z,58.35
2022-10-11T08:18:35.660Z,58.33
2022-10-11T08:21:09.614Z,58.24
2022-10-11T08:23:36.170Z,59.05
2022-10-11T08:26:03.346Z,59.20
2022-10-11T08:28:30.324Z,59.51
2022-10-11T08:30:57.080Z,58.84
2022-10-11T08:33:25.505Z,58.64
2022-10-11T08:35:53.539Z,58.52
2022-10-11T08:38:20.751Z,58.45
2022-10-11T08:40:53.715Z,58.50
2022-10-11T08:44:06.735Z,57.56
2022-10-11T08:46:38.811Z,58.65
2022-10-11T08:49:06.830Z,58.76
2022-10-11T08:52:02.379Z,58.20
2022-10-11T08:54:38.593Z,58.04
2022-10-11T08:57:06.797Z,58.69
2022-10-11T08:59:42.296Z,58.00
2022-10-11T09:03:03.140Z,57.24
2022-10-11T09:05:27.527Z,57.52
2022-10-11T09:08:08.043Z,57.53
2022-10-11T09:10:49.504Z,57.44
2022-10-11T09:13:34.689Z,57.67
2022-10-11T09:16:31.972Z,57.62
2022-10-11T09:19:34.454Z,58.00
2022-10-11T09:22:17.221Z,56.59
2022-10-11T09:25:15.129Z,57.49
2022-10-11T09:28:03.137Z,56.64
2022-10-11T09:30:31.535Z,57.33
2022-10-11T09:33:19.079Z,56.77
2022-10-11T09:35:49.643Z,57.40
2022-10-11T09:38:28.722Z,57.04
2022-10-11T09:41:16.827Z,56.01
2022-10-11T09:43:49.421Z,56.99
2022-10-11T09:46:41.557Z,56.43
2022-10-11T09:49:13.161Z,56.53
2022-10-11T09:51:43.349Z,55.81
2022-10-11T09:54:10.915Z,55.71
2022-10-11T09:56:42.975Z,55.72
2022-10-11T09:59:30.058Z,57.11
2022-10-11T10:02:22.456Z,56.21
2022-10-11T10:04:57.976Z,55.34
2022-10-11T10:07:25.567Z,54.81
2022-10-11T10:09:53.080Z,54.49
2022-10-11T10:12:23.984Z,54.68
2022-10-11T10:15:14.218Z,54.69
2022-10-11T10:17:49.503Z,54.79
2022-10-11T10:20:34.235Z,55.09
2022-10-11T10:23:21.984Z,53.46
2022-10-11T10:25:52.184Z,54.61
2022-10-11T10:28:25.271Z,53.50
2022-10-11T10:30:56.877Z,53.59
2022-10-11T10:33:25.952Z,53.36
2022-10-11T10:36:00.496Z,50.72
2022-10-11T10:38:27.614Z,53.12
2022-10-11T10:41:00.825Z,53.44
2022-10-11T10:43:33.396Z,50.92
2022-10-11T10:46:18.499Z,52.22
2022-10-11T10:49:48.493Z,51.08
2022-10-11T10:52:26.490Z,51.06
2022-10-11T10:55:42.945Z,51.63
2022-10-11T10:58:18.742Z,51.11
2022-10-11T11:01:20.602Z,51.44
2022-10-11T11:03:57.002Z,51.41
2022-10-11T11:06:35.626Z,50.82
2022-10-11T11:09:21.907Z,50.99
2022-10-11T11:12:08.267Z,50.69
2022-10-11T11:14:55.325Z,51.33
2022-10-11T11:17:37.260Z,50.80
2022-10-11T11:20:15.712Z,48.29
2022-10-11T11:23:08.528Z,50.28
2022-10-11T11:26:10.338Z,48.78
2022-10-11T11:28:50.223Z,48.43
2022-10-11T11:31:30.151Z,49.63
2022-10-11T11:33:56.814Z,49.16
2022-10-11T11:36:34.700Z,48.10
2022-10-11T11:39:03.739Z,48.87
2022-10-11T11:41:50.033Z,48.63
2022-10-11T11:44:30.093Z,47.51
2022-10-11T11:47:05.768Z,45.47
2022-10-11T11:49:37.040Z,47.20
2022-10-11T11:52:07.158Z,47.25
2022-10-11T11:54:49.513Z,46.08
2022-10-11T11:57:41.329Z,45.90
2022-10-11T12:00:13.962Z,45.92
2022-10-11T12:02:47.620Z,46.23
2022-10-11T12:05:18.190Z,46.41
2022-10-11T12:07:53.005Z,44.29
2022-10-11T12:10:34.625Z,44.86
2022-10-11T12:13:29.706Z,44.04
2022-10-11T12:16:04.569Z,46.53
2022-10-11T12:18:34.016Z,46.33
2022-10-11T12:21:34.950Z,43.58
2022-10-11T12:24:23.692Z,43.73
2022-10-11T12:26:55.377Z,45.50
2022-10-11T12:29:40.608Z,45.17
2022-10-11T12:32:07.064Z,44.80
2022-10-11T12:34:44.537Z,41.95
2022-10-11T12:37:19.951Z,43.05
2022-10-11T12:39:57.052Z,42.49
2022-10-11T12:42:30.192Z,43.89
2022-10-11T12:45:23.438Z,42.64
2022-10-11T12:48:15.030Z,43.43
2022-10-11T12:50:58.498Z,41.98
2022-10-11T12:53:35.508Z,41.84
2022-10-11T12:56:18.420Z,42.94
2022-10-11T12:58:48.196Z,43.82
2022-10-11T13:01:23.563Z,44.23
2022-10-11T13:04:03.543Z,40.03
2022-10-11T13:06:53.658Z,40.39
2022-10-11T13:09:31.702Z,40.96
2022-10-11T13:12:04.450Z,39.07
2022-10-11T13:14:40.834Z,41.27
2022-10-11T13:17:32.255Z,41.27
2022-10-11T13:20:19.192Z,39.76
2022-10-11T13:22:51.710Z,39.95
2022-10-11T13:25:21.473Z,38.85
2022-10-11T13:27:50.194Z,40.32
2022-10-11T13:30:35.426Z,40.47
2022-10-11T13:33:20.724Z,39.96
2022-10-11T13:35:48.014Z,40.94
2022-10-11T13:38:28.440Z,41.01
2022-10-11T13:40:57.821Z,42.26
2022-10-11T13:43:27.797Z,42.14
2022-10-11T13:45:56.450Z,42.00
2022-10-11T13:48:24.486Z,42.19
2022-10-11T13:51:17.930Z,40.99
2022-10-11T13:54:12.901Z,41.50
2022-10-11T13:56:49.840Z,40.47
2022-10-11T13:59:20.674Z,42.01
2022-10-11T14:01:48.077Z,42.70
2022-10-11T14:04:17.203Z,42.96
2022-10-11T14:07:00.171Z,43.27
2022-10-11T14:09:31.943Z,42.70
2022-10-11T14:12:25.934Z,42.88
2022-10-11T14:14:52.817Z,43.32
2022-10-11T14:17:34.094Z,43.69
2022-10-11T14:20:12.186Z,43.36
2022-10-11T14:22:39.434Z,44.03
2022-10-11T14:25:06.363Z,44.05
2022-10-11T14:27:33.058Z,44.48
2022-10-11T14:30:20.392Z,44.83
2022-10-11T14:32:48.346Z,45.21
2022-10-11T14:35:21.410Z,44.91
2022-10-11T14:37:48.154Z,45.31
2022-10-11T14:40:28.601Z,45.16
2022-10-11T14:42:55.359Z,44.91
2022-10-11T14:45:22.277Z,44.96
2022-10-11T14:47:49.731Z,45.51
2022-10-11T14:50:28.040Z,45.57
2022-10-11T14:52:55.612Z,45.82
2022-10-11T14:55:23.161Z,46.38
2022-10-11T14:57:49.777Z,46.75
2022-10-11T15:00:22.452Z,46.78
2022-10-11T15:02:50.513Z,47.35
2022-10-11T15:05:17.070Z,47.55
2022-10-11T15:07:43.755Z,47.65
2022-10-11T15:10:24.264Z,47.94
2022-10-11T15:12:52.316Z,48.16
2022-10-11T15:15:22.795Z,47.91
2022-10-11T15:17:59.617Z,47.99
2022-10-11T15:20:46.656Z,48.03
2022-10-11T15:23:13.816Z,48.48
2022-10-11T15:25:41.395Z,48.90
2022-10-11T15:28:14.733Z,49.46
2022-10-11T15:30:41.855Z,49.03
2022-10-11T15:33:08.994Z,49.46
2022-10-11T15:35:35.657Z,49.95
2022-10-11T15:38:02.224Z,50.24
2022-10-11T15:40:36.836Z,51.00
2022-10-11T15:43:04.178Z,51.14
2022-10-11T15:45:30.879Z,51.08
2022-10-11T15:47:58.159Z,51.75
2022-10-11T15:50:34.294Z,52.41
2022-10-11T15:53:09.775Z,52.63
2022-10-11T15:55:39.215Z,52.91
2022-10-11T15:58:16.614Z,53.40
2022-10-11T16:00:45.407Z,54.45
2022-10-11T16:03:13.969Z,55.06
2022-10-11T16:05:41.065Z,56.13
2022-10-11T16:08:07.971Z,56.46
2022-10-11T16:10:34.717Z,56.48
2022-10-11T16:13:02.063Z,57.12
2022-10-11T16:15:28.945Z,57.42
2022-10-11T16:17:55.484Z,57.61
2022-10-11T16:20:24.530Z,57.11
2022-10-11T16:22:52.767Z,57.21
2022-10-11T16:25:20.498Z,57.39
2022-10-11T16:27:47.263Z,57.47
2022-10-11T16:30:15.595Z,56.88
2022-10-11T16:32:42.147Z,56.58
2022-10-11T16:35:09.147Z,56.54
2022-10-11T16:37:36.383Z,56.37
2022-10-11T16:40:03.406Z,55.90
2022-10-11T16:42:29.935Z,56.07
2022-10-11T16:44:56.693Z,55.53
2022-10-11T16:47:23.329Z,55.33
2022-10-11T16:49:49.897Z,55.04
2022-10-11T16:52:16.499Z,55.18
2022-10-11T16:54:45.046Z,54.95
2022-10-11T16:57:13.244Z,54.68
2022-10-11T16:59:40.341Z,54.74
2022-10-11T17:02:12.773Z,55.20
2022-10-11T17:04:39.457Z,55.64
2022-10-11T17:07:12.259Z,55.61
2022-10-11T17:09:44.283Z,56.37
2022-10-11T17:12:15.063Z,56.22
2022-10-11T17:14:41.826Z,56.02
2022-10-11T17:17:10.062Z,56.50
2022-10-11T17:19:45.011Z,56.87
2022-10-11T17:22:14.055Z,56.64
2022-10-11T17:24:40.679Z,57.23
2022-10-11T17:27:07.633Z,57.25
2022-10-11T17:29:34.586Z,57.89
2022-10-11T17:32:01.380Z,58.20
2022-10-11T17:34:27.918Z,58.18
2022-10-11T17:36:54.475Z,58.08
2022-10-11T17:39:22.907Z,58.68
2022-10-11T17:41:49.858Z,58.32
2022-10-11T17:44:20.051Z,58.34
2022-10-11T17:46:47.262Z,59.65
2022-10-11T17:49:14.071Z,59.30
2022-10-11T17:51:41.416Z,58.88
2022-10-11T17:54:12.384Z,59.17
2022-10-11T17:56:41.098Z,58.69
2022-10-11T17:59:08.648Z,58.95
2022-10-11T18:01:36.205Z,59.20
2022-10-11T18:04:04.999Z,59.10
2022-10-11T18:06:34.290Z,59.51
2022-10-11T18:09:02.156Z,59.46
2022-10-11T18:11:29.039Z,59.72
2022-10-11T18:13:55.860Z,60.34
2022-10-11T18:16:26.915Z,60.94
2022-10-11T18:18:54.061Z,61.27
2022-10-11T18:21:20.649Z,61.37
2022-10-11T18:23:47.353Z,61.49
2022-10-11T18:26:17.498Z,61.68
2022-10-11T18:28:44.969Z,61.48
2022-10-11T18:31:15.078Z,61.73
2022-10-11T18:33:43.100Z,62.06
2022-10-11T18:36:13.285Z,62.14
2022-10-11T18:38:43.913Z,61.80
2022-10-11T18:41:11.793Z,62.19
2022-10-11T18:43:38.536Z,62.52
2022-10-11T18:46:11.267Z,62.46
2022-10-11T18:48:42.393Z,62.39
2022-10-11T18:51:11.832Z,62.62
2022-10-11T18:53:38.645Z,62.66
2022-10-11T18:56:07.428Z,62.58
2022-10-11T18:58:36.424Z,62.87
2022-10-11T19:01:08.653Z,62.58
2022-10-11T19:03:36.068Z,62.92
2022-10-11T19:06:08.635Z,63.12
2022-10-11T19:08:35.462Z,62.73
2022-10-11T19:11:07.024Z,62.44
2022-10-11T19:13:34.742Z,62.73
2022-10-11T19:16:09.720Z,62.54
2022-10-11T19:18:40.417Z,62.52
2022-10-11T19:21:12.608Z,62.40
2022-10-11T19:23:44.342Z,62.50
2022-10-11T19:26:15.275Z,62.64
2022-10-11T19:28:42.561Z,62.37
2022-10-11T19:31:11.602Z,62.56
2022-10-11T19:33:38.290Z,62.43
2022-10-11T19:36:06.728Z,62.18
2022-10-11T19:38:34.748Z,62.48
2022-10-11T19:41:01.801Z,62.59
2022-10-11T19:43:28.425Z,62.09
2022-10-11T19:46:09.467Z,62.76
2022-10-11T19:48:38.070Z,62.33
2022-10-11T19:51:11.723Z,63.16
2022-10-11T19:53:38.334Z,62.25
2022-10-11T19:56:12.790Z,63.36
2022-10-11T19:58:40.353Z,62.89
2022-10-11T20:01:13.424Z,62.47
2022-10-11T20:03:39.980Z,62.58
2022-10-11T20:06:07.970Z,62.62
2022-10-11T20:08:35.720Z,62.88
2022-10-11T20:11:04.760Z,62.84
2022-10-11T20:13:34.857Z,63.02
2022-10-11T20:16:06.999Z,63.51
2022-10-11T20:18:33.921Z,63.70
2022-10-11T20:21:05.717Z,63.68
2022-10-11T20:23:33.488Z,63.38
2022-10-11T20:26:04.782Z,63.65
2022-10-11T20:28:32.678Z,63.82
2022-10-11T20:31:00.569Z,63.98
2022-10-11T20:33:29.812Z,64.25
2022-10-11T20:36:01.353Z,64.77
2022-10-11T20:38:28.974Z,64.48
2022-10-11T20:40:55.828Z,64.64
2022-10-11T20:43:22.906Z,64.73
2022-10-11T20:46:00.801Z,65.28
2022-10-11T20:48:27.792Z,64.92
2022-10-11T20:50:55.243Z,64.92
2022-10-11T20:53:22.492Z,64.92
2022-10-11T20:55:49.607Z,65.64
2022-10-11T20:58:16.801Z,65.55
2022-10-11T21:00:43.622Z,65.36
2022-10-11T21:03:10.705Z,66.14
2022-10-11T21:05:37.254Z,65.68
2022-10-11T21:08:04.030Z,65.76
2022-10-11T21:10:30.995Z,66.09
2022-10-11T21:12:57.653Z,66.38
2022-10-11T21:15:24.275Z,65.97
2022-10-11T21:17:51.733Z,65.84
2022-10-11T21:20:18.553Z,65.99
2022-10-11T21:22:45.056Z,65.70
2022-10-11T21:25:11.574Z,65.77
2022-10-11T21:27:38.072Z,65.44
2022-10-11T21:30:04.899Z,65.54
2022-10-11T21:32:31.550Z,65.39
2022-10-11T21:34:58.339Z,65.75
2022-10-11T21:37:24.865Z,65.86
2022-10-11T21:39:51.366Z,65.97
2022-10-11T21:42:17.901Z,65.66
2022-10-11T21:44:44.631Z,65.87
2022-10-11T21:47:11.189Z,66.18
2022-10-11T21:49:37.735Z,66.43
2022-10-11T21:52:05.199Z,66.18
2022-10-11T21:54:31.691Z,66.33
2022-10-11T21:56:58.627Z,66.58
2022-10-11T21:59:25.161Z,66.41
2022-10-11T22:01:51.702Z,66.99
2022-10-11T22:04:18.363Z,67.15
2022-10-11T22:06:44.851Z,67.06
2022-10-11T22:09:11.410Z,66.72
2022-10-11T22:11:38.179Z,67.10
2022-10-11T22:14:05.338Z,67.74
2022-10-11T22:16:33.659Z,67.37
2022-10-11T22:19:00.219Z,67.56
2022-10-11T22:21:26.763Z,67.40
2022-10-11T22:23:54.809Z,67.47
2022-10-11T22:26:24.070Z,67.42
2022-10-11T22:28:50.652Z,67.60
2022-10-11T22:31:19.533Z,67.68
2022-10-11T22:33:46.328Z,68.02
2022-10-11T22:36:13.845Z,68.27
2022-10-11T22:38:42.275Z,68.03
2022-10-11T22:41:09.447Z,67.99
2022-10-11T22:43:36.001Z,68.23
2022-10-11T22:46:03.236Z,68.49
2022-10-11T22:48:29.821Z,68.42
2022-10-11T22:50:56.319Z,68.77
2022-10-11T22:53:22.818Z,69.38
2022-10-11T22:55:49.305Z,69.29
2022-10-11T22:58:15.819Z,69.51
2022-10-11T23:00:42.631Z,68.78
2022-10-11T23:03:16.670Z,69.03
2022-10-11T23:05:43.475Z,69.00
2022-10-11T23:08:10.132Z,69.11
2022-10-11T23:10:40.437Z,68.66
2022-10-11T23:13:07.044Z,68.61
2022-10-11T23:15:33.605Z,69.53
2022-10-11T23:18:00.174Z,69.66
2022-10-11T23:20:26.702Z,69.89
2022-10-11T23:22:53.185Z,69.79
2022-10-11T23:25:19.673Z,69.71
2022-10-11T23:27:46.158Z,70.21
2022-10-11T23:30:13.435Z,69.74
2022-10-11T23:32:39.936Z,69.92
2022-10-11T23:35:06.724Z,70.43
2022-10-11T23:37:33.279Z,70.75
2022-10-11T23:39:59.786Z,70.47
2022-10-11T23:42:26.294Z,70.90
2022-10-11T23:44:54.124Z,70.92
2022-10-11T23:47:20.663Z,70.75
2022-10-11T23:49:47.166Z,71.14
2022-10-11T23:52:13.662Z,70.76
2022-10-11T23:54:40.161Z,71.41
2022-10-11T23:57:06.759Z,71.51
2022-10-11T23:59:33.230Z,71.22
